sensor_id;sensor_type;location;lat;lon;timestamp;temperature;humidity
52517;DHT22;59374;53.210;5.726;2022-09-09T00:09:47;13.90;99.90
52517;DHT22;59374;53.210;5.726;2022-09-09T00:15:21;13.90;99.90
52517;DHT22;59374;53.210;5.726;2022-09-09T00:23:01;14.00;99.90
52517;DHT22;59374;53.210;5.726;2022-09-09T00:25:31;14.00;99.90
52517;DHT22;59374;53.210;5.726;2022-09-09T00:27:58;13.90;99.90
52517;DHT22;59374;53.210;5.726;2022-09-09T00:30:31;14.00;99.90
52517;DHT22;59374;53.210;5.726;2022-09-09T00:33:03;13.90;99.90
52517;DHT22;59374;53.210;5.726;2022-09-09T00:35:40;14.00;99.90
52517;DHT22;59374;53.210;5.726;2022-09-09T00:38:17;13.90;99.90
52517;DHT22;59374;53.210;5.726;2022-09-09T00:40:50;13.90;99.90
52517;DHT22;59374;53.210;5.726;2022-09-09T00:43:29;13.90;99.90
52517;DHT22;59374;53.210;5.726;2022-09-09T00:46:15;13.90;99.90
52517;DHT22;59374;53.210;5.726;2022-09-09T00:49:08;13.80;99.90
52517;DHT22;59374;53.210;5.726;2022-09-09T00:52:21;13.80;99.90
52517;DHT22;59374;53.210;5.726;2022-09-09T00:57:31;13.70;99.90
52517;DHT22;59374;53.210;5.726;2022-09-09T01:05:36;13.70;99.90
52517;DHT22;59374;53.210;5.726;2022-09-09T01:08:16;13.60;99.90
52517;DHT22;59374;53.210;5.726;2022-09-09T01:10:49;13.60;99.90
52517;DHT22;59374;53.210;5.726;2022-09-09T01:13:25;13.60;99.90
52517;DHT22;59374;53.210;5.726;2022-09-09T01:15:52;13.60;99.90
52517;DHT22;59374;53.210;5.726;2022-09-09T01:18:21;13.60;99.90
52517;DHT22;59374;53.210;5.726;2022-09-09T01:21:38;13.60;99.90
52517;DHT22;59374;53.210;5.726;2022-09-09T01:23:56;13.60;99.90
52517;DHT22;59374;53.210;5.726;2022-09-09T01:26:34;13.60;99.90
52517;DHT22;59374;53.210;5.726;2022-09-09T01:29:00;13.70;99.90
52517;DHT22;59374;53.210;5.726;2022-09-09T01:31:30;13.60;99.90
52517;DHT22;59374;53.210;5.726;2022-09-09T01:33:56;13.70;99.90
52517;DHT22;59374;53.210;5.726;2022-09-09T01:36:43;13.60;99.90
52517;DHT22;59374;53.210;5.726;2022-09-09T01:39:10;13.60;99.90
52517;DHT22;59374;53.210;5.726;2022-09-09T01:41:37;13.60;99.90
52517;DHT22;59374;53.210;5.726;2022-09-09T01:44:03;13.60;99.90
52517;DHT22;59374;53.210;5.726;2022-09-09T01:46:29;13.50;99.90
52517;DHT22;59374;53.210;5.726;2022-09-09T01:48:55;13.50;99.90
52517;DHT22;59374;53.210;5.726;2022-09-09T01:51:21;13.50;99.90
52517;DHT22;59374;53.210;5.726;2022-09-09T01:53:47;13.50;99.90
52517;DHT22;59374;53.210;5.726;2022-09-09T02:02:03;13.50;99.90
52517;DHT22;59374;53.210;5.726;2022-09-09T02:04:49;13.50;99.90
52517;DHT22;59374;53.210;5.726;2022-09-09T02:07:26;13.50;99.90
52517;DHT22;59374;53.210;5.726;2022-09-09T02:12:49;13.50;99.90
52517;DHT22;59374;53.210;5.726;2022-09-09T02:15:28;13.40;99.90
52517;DHT22;59374;53.210;5.726;2022-09-09T02:17:58;13.40;99.90
52517;DHT22;59374;53.210;5.726;2022-09-09T02:20:25;13.40;99.90
52517;DHT22;59374;53.210;5.726;2022-09-09T02:22:53;13.40;99.90
52517;DHT22;59374;53.210;5.726;2022-09-09T02:25:22;13.40;99.90
52517;DHT22;59374;53.210;5.726;2022-09-09T02:27:50;13.40;99.90
52517;DHT22;59374;53.210;5.726;2022-09-09T02:30:17;13.30;99.90
52517;DHT22;59374;53.210;5.726;2022-09-09T02:32:44;13.30;99.90
52517;DHT22;59374;53.210;5.726;2022-09-09T02:35:17;13.30;99.90
52517;DHT22;59374;53.210;5.726;2022-09-09T02:37:46;13.30;99.90
52517;DHT22;59374;53.210;5.726;2022-09-09T02:40:13;13.30;99.90
52517;DHT22;59374;53.210;5.726;2022-09-09T02:42:42;13.30;99.90
52517;DHT22;59374;53.210;5.726;2022-09-09T02:45:10;13.30;99.90
52517;DHT22;59374;53.210;5.726;2022-09-09T02:50:26;13.30;99.90
52517;DHT22;59374;53.210;5.726;2022-09-09T02:55:39;13.30;99.90
52517;DHT22;59374;53.210;5.726;2022-09-09T02:58:08;13.30;99.90
52517;DHT22;59374;53.210;5.726;2022-09-09T03:00:36;13.30;99.90
52517;DHT22;59374;53.210;5.726;2022-09-09T03:03:07;13.30;99.90
52517;DHT22;59374;53.210;5.726;2022-09-09T03:05:34;13.20;99.90
52517;DHT22;59374;53.210;5.726;2022-09-09T03:08:01;13.20;99.90
52517;DHT22;59374;53.210;5.726;2022-09-09T03:10:27;13.20;99.90
52517;DHT22;59374;53.210;5.726;2022-09-09T03:12:53;13.20;99.90
52517;DHT22;59374;53.210;5.726;2022-09-09T03:15:18;13.20;99.90
52517;DHT22;59374;53.210;5.726;2022-09-09T03:17:44;13.20;99.90
52517;DHT22;59374;53.210;5.726;2022-09-09T03:20:10;13.20;99.90
52517;DHT22;59374;53.210;5.726;2022-09-09T03:22:35;13.20;99.90
52517;DHT22;59374;53.210;5.726;2022-09-09T03:25:01;13.20;99.90
52517;DHT22;59374;53.210;5.726;2022-09-09T03:27:28;13.20;99.90
52517;DHT22;59374;53.210;5.726;2022-09-09T03:29:54;13.30;99.90
52517;DHT22;59374;53.210;5.726;2022-09-09T03:32:20;13.30;99.90
52517;DHT22;59374;53.210;5.726;2022-09-09T03:34:48;13.40;99.90
52517;DHT22;59374;53.210;5.726;2022-09-09T03:37:15;13.50;99.90
52517;DHT22;59374;53.210;5.726;2022-09-09T03:39:41;13.60;99.90
52517;DHT22;59374;53.210;5.726;2022-09-09T03:42:06;13.70;99.90
52517;DHT22;59374;53.210;5.726;2022-09-09T03:44:32;13.80;99.90
52517;DHT22;59374;53.210;5.726;2022-09-09T03:46:57;13.80;99.90
52517;DHT22;59374;53.210;5.726;2022-09-09T03:49:25;13.90;99.90
52517;DHT22;59374;53.210;5.726;2022-09-09T03:51:54;13.90;99.90
52517;DHT22;59374;53.210;5.726;2022-09-09T03:54:20;14.00;99.90
52517;DHT22;59374;53.210;5.726;2022-09-09T03:56:46;14.00;99.90
52517;DHT22;59374;53.210;5.726;2022-09-09T03:59:11;14.00;99.90
52517;DHT22;59374;53.210;5.726;2022-09-09T04:01:37;14.00;99.90
52517;DHT22;59374;53.210;5.726;2022-09-09T04:04:02;14.00;99.90
52517;DHT22;59374;53.210;5.726;2022-09-09T04:06:28;14.00;99.90
52517;DHT22;59374;53.210;5.726;2022-09-09T04:08:55;13.90;99.90
52517;DHT22;59374;53.210;5.726;2022-09-09T04:11:21;13.80;99.90
52517;DHT22;59374;53.210;5.726;2022-09-09T04:13:47;13.80;99.90
52517;DHT22;59374;53.210;5.726;2022-09-09T04:16:13;13.80;99.90
52517;DHT22;59374;53.210;5.726;2022-09-09T04:18:39;13.70;99.90
52517;DHT22;59374;53.210;5.726;2022-09-09T04:21:05;13.60;99.90
52517;DHT22;59374;53.210;5.726;2022-09-09T04:23:33;13.60;99.90
52517;DHT22;59374;53.210;5.726;2022-09-09T04:26:00;13.60;99.90
52517;DHT22;59374;53.210;5.726;2022-09-09T04:28:28;13.60;99.90
52517;DHT22;59374;53.210;5.726;2022-09-09T04:30:55;13.60;99.90
52517;DHT22;59374;53.210;5.726;2022-09-09T04:33:23;13.60;99.90
52517;DHT22;59374;53.210;5.726;2022-09-09T04:35:51;13.50;99.90
52517;DHT22;59374;53.210;5.726;2022-09-09T04:38:19;13.50;99.90
52517;DHT22;59374;53.210;5.726;2022-09-09T04:40:49;13.50;99.90
52517;DHT22;59374;53.210;5.726;2022-09-09T04:43:16;13.50;99.90
52517;DHT22;59374;53.210;5.726;2022-09-09T04:45:43;13.50;99.90
52517;DHT22;59374;53.210;5.726;2022-09-09T04:48:09;13.50;99.90
52517;DHT22;59374;53.210;5.726;2022-09-09T04:50:35;13.50;99.90
52517;DHT22;59374;53.210;5.726;2022-09-09T04:53:04;13.50;99.90
52517;DHT22;59374;53.210;5.726;2022-09-09T04:55:31;13.50;99.90
52517;DHT22;59374;53.210;5.726;2022-09-09T04:57:57;13.50;99.90
52517;DHT22;59374;53.210;5.726;2022-09-09T05:00:26;13.60;99.90
52517;DHT22;59374;53.210;5.726;2022-09-09T05:02:52;13.50;99.90
52517;DHT22;59374;53.210;5.726;2022-09-09T05:05:17;13.60;99.90
52517;DHT22;59374;53.210;5.726;2022-09-09T05:07:44;13.60;99.90
52517;DHT22;59374;53.210;5.726;2022-09-09T05:10:09;13.50;99.90
52517;DHT22;59374;53.210;5.726;2022-09-09T05:12:36;13.60;99.90
52517;DHT22;59374;53.210;5.726;2022-09-09T05:15:01;13.60;99.90
52517;DHT22;59374;53.210;5.726;2022-09-09T05:17:27;13.60;99.90
52517;DHT22;59374;53.210;5.726;2022-09-09T05:19:53;13.60;99.90
52517;DHT22;59374;53.210;5.726;2022-09-09T05:22:19;13.60;99.90
52517;DHT22;59374;53.210;5.726;2022-09-09T05:24:45;13.60;99.90
52517;DHT22;59374;53.210;5.726;2022-09-09T05:27:11;13.60;99.90
52517;DHT22;59374;53.210;5.726;2022-09-09T05:29:37;13.60;99.90
52517;DHT22;59374;53.210;5.726;2022-09-09T05:32:04;13.70;99.90
52517;DHT22;59374;53.210;5.726;2022-09-09T05:34:29;13.70;99.90
52517;DHT22;59374;53.210;5.726;2022-09-09T05:36:55;13.70;99.90
52517;DHT22;59374;53.210;5.726;2022-09-09T05:39:21;13.70;99.90
52517;DHT22;59374;53.210;5.726;2022-09-09T05:41:46;13.60;99.90
52517;DHT22;59374;53.210;5.726;2022-09-09T05:44:12;13.70;99.90
52517;DHT22;59374;53.210;5.726;2022-09-09T05:46:39;13.60;99.90
52517;DHT22;59374;53.210;5.726;2022-09-09T05:49:05;13.70;99.90
52517;DHT22;59374;53.210;5.726;2022-09-09T05:51:31;13.70;99.90
52517;DHT22;59374;53.210;5.726;2022-09-09T05:53:57;13.70;99.90
52517;DHT22;59374;53.210;5.726;2022-09-09T05:56:29;13.80;99.90
52517;DHT22;59374;53.210;5.726;2022-09-09T05:58:55;13.80;99.90
52517;DHT22;59374;53.210;5.726;2022-09-09T06:01:24;13.80;99.90
52517;DHT22;59374;53.210;5.726;2022-09-09T06:03:51;13.90;99.90
52517;DHT22;59374;53.210;5.726;2022-09-09T06:06:19;13.90;99.90
52517;DHT22;59374;53.210;5.726;2022-09-09T06:08:51;14.00;99.90
52517;DHT22;59374;53.210;5.726;2022-09-09T06:11:22;14.10;99.90
52517;DHT22;59374;53.210;5.726;2022-09-09T06:13:49;14.10;99.90
52517;DHT22;59374;53.210;5.726;2022-09-09T06:16:18;14.20;99.90
52517;DHT22;59374;53.210;5.726;2022-09-09T06:18:44;14.30;99.90
52517;DHT22;59374;53.210;5.726;2022-09-09T06:21:29;14.40;99.90
52517;DHT22;59374;53.210;5.726;2022-09-09T06:23:56;14.50;99.90
52517;DHT22;59374;53.210;5.726;2022-09-09T06:28:49;14.70;99.90
52517;DHT22;59374;53.210;5.726;2022-09-09T06:31:17;14.80;99.90
52517;DHT22;59374;53.210;5.726;2022-09-09T06:33:47;14.80;99.90
52517;DHT22;59374;53.210;5.726;2022-09-09T06:36:36;14.90;99.90
52517;DHT22;59374;53.210;5.726;2022-09-09T06:39:00;15.00;99.90
52517;DHT22;59374;53.210;5.726;2022-09-09T06:41:28;15.00;99.90
52517;DHT22;59374;53.210;5.726;2022-09-09T06:43:54;15.00;99.90
52517;DHT22;59374;53.210;5.726;2022-09-09T06:46:23;15.10;99.90
52517;DHT22;59374;53.210;5.726;2022-09-09T06:48:49;15.10;99.90
52517;DHT22;59374;53.210;5.726;2022-09-09T06:51:18;15.10;99.90
52517;DHT22;59374;53.210;5.726;2022-09-09T06:53:45;15.00;99.90
52517;DHT22;59374;53.210;5.726;2022-09-09T06:58:57;15.10;99.90
52517;DHT22;59374;53.210;5.726;2022-09-09T07:01:29;15.10;99.90
52517;DHT22;59374;53.210;5.726;2022-09-09T07:03:56;15.10;99.90
52517;DHT22;59374;53.210;5.726;2022-09-09T07:06:28;15.10;99.90
52517;DHT22;59374;53.210;5.726;2022-09-09T07:08:56;15.20;99.90
52517;DHT22;59374;53.210;5.726;2022-09-09T07:11:27;15.20;99.90
52517;DHT22;59374;53.210;5.726;2022-09-09T07:13:54;15.30;99.90
52517;DHT22;59374;53.210;5.726;2022-09-09T07:16:21;15.30;99.90
52517;DHT22;59374;53.210;5.726;2022-09-09T07:18:53;15.40;99.90
52517;DHT22;59374;53.210;5.726;2022-09-09T07:21:23;15.40;99.90
52517;DHT22;59374;53.210;5.726;2022-09-09T07:23:50;15.50;99.90
52517;DHT22;59374;53.210;5.726;2022-09-09T07:26:21;15.50;99.90
52517;DHT22;59374;53.210;5.726;2022-09-09T07:28:48;15.60;99.90
52517;DHT22;59374;53.210;5.726;2022-09-09T07:31:16;15.70;99.90
52517;DHT22;59374;53.210;5.726;2022-09-09T07:33:43;15.70;99.90
52517;DHT22;59374;53.210;5.726;2022-09-09T07:36:16;15.80;99.90
52517;DHT22;59374;53.210;5.726;2022-09-09T07:38:48;15.90;99.90
52517;DHT22;59374;53.210;5.726;2022-09-09T07:41:21;16.00;99.90
52517;DHT22;59374;53.210;5.726;2022-09-09T07:43:48;16.10;99.90
52517;DHT22;59374;53.210;5.726;2022-09-09T07:46:15;16.10;99.90
52517;DHT22;59374;53.210;5.726;2022-09-09T07:48:45;16.20;99.90
52517;DHT22;59374;53.210;5.726;2022-09-09T07:51:14;16.30;99.90
52517;DHT22;59374;53.210;5.726;2022-09-09T07:53:42;16.30;99.90
52517;DHT22;59374;53.210;5.726;2022-09-09T07:56:14;16.30;99.90
52517;DHT22;59374;53.210;5.726;2022-09-09T07:58:41;16.30;99.90
52517;DHT22;59374;53.210;5.726;2022-09-09T08:01:18;16.30;99.90
52517;DHT22;59374;53.210;5.726;2022-09-09T08:03:55;16.30;99.90
52517;DHT22;59374;53.210;5.726;2022-09-09T08:06:24;16.40;99.90
52517;DHT22;59374;53.210;5.726;2022-09-09T08:08:51;16.60;99.90
52517;DHT22;59374;53.210;5.726;2022-09-09T08:11:17;16.70;99.90
52517;DHT22;59374;53.210;5.726;2022-09-09T08:13:43;16.90;99.90
52517;DHT22;59374;53.210;5.726;2022-09-09T08:16:12;17.10;99.90
52517;DHT22;59374;53.210;5.726;2022-09-09T08:18:37;17.20;99.90
52517;DHT22;59374;53.210;5.726;2022-09-09T08:21:07;17.40;99.90
52517;DHT22;59374;53.210;5.726;2022-09-09T08:23:34;17.50;99.90
52517;DHT22;59374;53.210;5.726;2022-09-09T08:26:09;17.60;99.90
52517;DHT22;59374;53.210;5.726;2022-09-09T08:28:37;17.70;99.90
52517;DHT22;59374;53.210;5.726;2022-09-09T08:33:53;17.80;99.90
52517;DHT22;59374;53.210;5.726;2022-09-09T08:36:22;17.80;99.90
52517;DHT22;59374;53.210;5.726;2022-09-09T08:38:50;17.90;99.90
52517;DHT22;59374;53.210;5.726;2022-09-09T08:44:10;18.10;99.90
52517;DHT22;59374;53.210;5.726;2022-09-09T08:55:20;18.70;99.90
52517;DHT22;59374;53.210;5.726;2022-09-09T08:57:49;18.90;99.90
52517;DHT22;59374;53.210;5.726;2022-09-09T09:00:17;19.10;99.90
52517;DHT22;59374;53.210;5.726;2022-09-09T09:10:39;19.40;99.90
52517;DHT22;59374;53.210;5.726;2022-09-09T09:13:22;19.50;99.90
52517;DHT22;59374;53.210;5.726;2022-09-09T09:15:54;19.60;99.90
52517;DHT22;59374;53.210;5.726;2022-09-09T09:18:22;19.50;99.90
52517;DHT22;59374;53.210;5.726;2022-09-09T09:23:45;19.50;99.90
52517;DHT22;59374;53.210;5.726;2022-09-09T09:26:13;19.40;99.90
52517;DHT22;59374;53.210;5.726;2022-09-09T09:28:39;19.40;99.90
52517;DHT22;59374;53.210;5.726;2022-09-09T09:31:08;19.50;99.90
52517;DHT22;59374;53.210;5.726;2022-09-09T09:33:44;19.50;99.90
52517;DHT22;59374;53.210;5.726;2022-09-09T09:36:12;19.80;99.90
52517;DHT22;59374;53.210;5.726;2022-09-09T09:39:00;20.00;99.90
52517;DHT22;59374;53.210;5.726;2022-09-09T09:41:36;20.00;99.90
52517;DHT22;59374;53.210;5.726;2022-09-09T09:44:04;20.10;99.90
52517;DHT22;59374;53.210;5.726;2022-09-09T09:46:31;20.20;99.90
52517;DHT22;59374;53.210;5.726;2022-09-09T09:49:02;20.20;99.90
52517;DHT22;59374;53.210;5.726;2022-09-09T09:51:29;20.20;99.90
52517;DHT22;59374;53.210;5.726;2022-09-09T09:56:35;20.30;99.90
52517;DHT22;59374;53.210;5.726;2022-09-09T09:59:01;20.30;99.90
52517;DHT22;59374;53.210;5.726;2022-09-09T10:01:27;20.40;99.90
52517;DHT22;59374;53.210;5.726;2022-09-09T10:03:58;20.40;99.90
52517;DHT22;59374;53.210;5.726;2022-09-09T10:06:37;20.40;99.90
52517;DHT22;59374;53.210;5.726;2022-09-09T10:09:17;20.60;99.90
52517;DHT22;59374;53.210;5.726;2022-09-09T10:14:23;20.80;99.90
52517;DHT22;59374;53.210;5.726;2022-09-09T10:16:58;21.00;99.90
52517;DHT22;59374;53.210;5.726;2022-09-09T10:22:25;21.30;99.90
52517;DHT22;59374;53.210;5.726;2022-09-09T10:38:45;21.60;99.90
52517;DHT22;59374;53.210;5.726;2022-09-09T10:51:53;22.20;99.90
52517;DHT22;59374;53.210;5.726;2022-09-09T10:57:33;22.60;99.90
52517;DHT22;59374;53.210;5.726;2022-09-09T11:00:14;22.80;99.90
52517;DHT22;59374;53.210;5.726;2022-09-09T11:02:41;22.90;99.90
52517;DHT22;59374;53.210;5.726;2022-09-09T11:05:24;22.70;99.90
52517;DHT22;59374;53.210;5.726;2022-09-09T11:12:53;22.70;99.90
52517;DHT22;59374;53.210;5.726;2022-09-09T11:15:26;22.70;99.90
52517;DHT22;59374;53.210;5.726;2022-09-09T11:17:56;22.80;99.90
52517;DHT22;59374;53.210;5.726;2022-09-09T11:20:25;22.80;99.90
52517;DHT22;59374;53.210;5.726;2022-09-09T11:22:59;22.60;99.90
52517;DHT22;59374;53.210;5.726;2022-09-09T11:25:36;22.30;99.90
52517;DHT22;59374;53.210;5.726;2022-09-09T11:41:36;21.90;99.90
52517;DHT22;59374;53.210;5.726;2022-09-09T11:44:11;22.20;99.90
52517;DHT22;59374;53.210;5.726;2022-09-09T11:46:39;22.40;99.90
52517;DHT22;59374;53.210;5.726;2022-09-09T11:51:50;23.20;99.90
52517;DHT22;59374;53.210;5.726;2022-09-09T11:54:29;23.40;99.90
52517;DHT22;59374;53.210;5.726;2022-09-09T11:56:55;23.50;99.90
52517;DHT22;59374;53.210;5.726;2022-09-09T11:59:32;23.60;99.90
52517;DHT22;59374;53.210;5.726;2022-09-09T12:02:27;23.60;99.90
52517;DHT22;59374;53.210;5.726;2022-09-09T12:05:11;23.60;99.90
52517;DHT22;59374;53.210;5.726;2022-09-09T12:07:42;23.50;99.90
52517;DHT22;59374;53.210;5.726;2022-09-09T12:10:30;23.30;99.90
52517;DHT22;59374;53.210;5.726;2022-09-09T12:13:17;23.00;99.90
52517;DHT22;59374;53.210;5.726;2022-09-09T12:15:54;22.80;99.90
52517;DHT22;59374;53.210;5.726;2022-09-09T12:18:36;22.60;99.90
52517;DHT22;59374;53.210;5.726;2022-09-09T12:24:03;22.30;99.90
52517;DHT22;59374;53.210;5.726;2022-09-09T12:26:36;22.00;99.90
52517;DHT22;59374;53.210;5.726;2022-09-09T12:31:59;21.60;99.90
52517;DHT22;59374;53.210;5.726;2022-09-09T12:34:35;21.80;99.90
52517;DHT22;59374;53.210;5.726;2022-09-09T12:37:49;22.20;99.90
52517;DHT22;59374;53.210;5.726;2022-09-09T12:40:00;22.40;99.90
52517;DHT22;59374;53.210;5.726;2022-09-09T12:42:28;22.50;99.90
52517;DHT22;59374;53.210;5.726;2022-09-09T12:45:01;22.50;99.90
52517;DHT22;59374;53.210;5.726;2022-09-09T12:50:22;22.90;99.90
52517;DHT22;59374;53.210;5.726;2022-09-09T12:52:50;23.00;99.90
52517;DHT22;59374;53.210;5.726;2022-09-09T12:55:20;23.10;99.90
52517;DHT22;59374;53.210;5.726;2022-09-09T12:57:48;23.30;99.90
52517;DHT22;59374;53.210;5.726;2022-09-09T13:00:20;23.50;99.90
52517;DHT22;59374;53.210;5.726;2022-09-09T13:02:53;23.70;99.90
52517;DHT22;59374;53.210;5.726;2022-09-09T13:05:28;23.90;99.90
52517;DHT22;59374;53.210;5.726;2022-09-09T13:08:06;23.90;99.90
52517;DHT22;59374;53.210;5.726;2022-09-09T13:13:14;23.50;99.90
52517;DHT22;59374;53.210;5.726;2022-09-09T13:15:47;23.40;99.90
52517;DHT22;59374;53.210;5.726;2022-09-09T13:18:14;23.20;99.90
52517;DHT22;59374;53.210;5.726;2022-09-09T13:20:46;23.00;99.90
52517;DHT22;59374;53.210;5.726;2022-09-09T13:23:12;22.80;99.90
52517;DHT22;59374;53.210;5.726;2022-09-09T13:25:38;22.70;99.90
52517;DHT22;59374;53.210;5.726;2022-09-09T13:28:18;22.60;99.90
52517;DHT22;59374;53.210;5.726;2022-09-09T13:31:03;22.50;99.90
52517;DHT22;59374;53.210;5.726;2022-09-09T13:33:38;22.50;99.90
52517;DHT22;59374;53.210;5.726;2022-09-09T13:36:12;22.70;99.90
52517;DHT22;59374;53.210;5.726;2022-09-09T13:41:19;22.70;99.90
52517;DHT22;59374;53.210;5.726;2022-09-09T13:43:47;22.40;99.90
52517;DHT22;59374;53.210;5.726;2022-09-09T13:48:59;21.70;99.90
52517;DHT22;59374;53.210;5.726;2022-09-09T13:51:46;21.50;99.90
52517;DHT22;59374;53.210;5.726;2022-09-09T13:54:14;21.50;99.90
52517;DHT22;59374;53.210;5.726;2022-09-09T13:56:41;21.60;99.90
52517;DHT22;59374;53.210;5.726;2022-09-09T13:59:11;21.90;99.90
52517;DHT22;59374;53.210;5.726;2022-09-09T14:01:38;22.60;99.90
52517;DHT22;59374;53.210;5.726;2022-09-09T14:04:03;23.40;99.90
52517;DHT22;59374;53.210;5.726;2022-09-09T14:06:32;24.20;99.90
52517;DHT22;59374;53.210;5.726;2022-09-09T14:08:58;24.60;99.90
52517;DHT22;59374;53.210;5.726;2022-09-09T14:11:24;24.80;99.90
52517;DHT22;59374;53.210;5.726;2022-09-09T14:13:50;25.30;99.90
52517;DHT22;59374;53.210;5.726;2022-09-09T14:16:19;25.70;99.90
52517;DHT22;59374;53.210;5.726;2022-09-09T14:18:45;25.70;99.90
52517;DHT22;59374;53.210;5.726;2022-09-09T14:21:12;25.60;99.90
52517;DHT22;59374;53.210;5.726;2022-09-09T14:23:38;25.70;99.90
52517;DHT22;59374;53.210;5.726;2022-09-09T14:26:05;25.90;99.90
52517;DHT22;59374;53.210;5.726;2022-09-09T14:28:31;25.80;99.90
52517;DHT22;59374;53.210;5.726;2022-09-09T14:31:02;25.90;99.90
52517;DHT22;59374;53.210;5.726;2022-09-09T14:33:29;26.10;99.90
52517;DHT22;59374;53.210;5.726;2022-09-09T14:35:59;26.30;99.90
52517;DHT22;59374;53.210;5.726;2022-09-09T14:38:29;26.50;99.90
52517;DHT22;59374;53.210;5.726;2022-09-09T14:40:55;26.60;99.90
52517;DHT22;59374;53.210;5.726;2022-09-09T14:43:21;26.40;99.90
52517;DHT22;59374;53.210;5.726;2022-09-09T14:45:47;26.50;99.90
52517;DHT22;59374;53.210;5.726;2022-09-09T14:48:17;26.40;99.90
52517;DHT22;59374;53.210;5.726;2022-09-09T14:50:42;25.70;99.90
52517;DHT22;59374;53.210;5.726;2022-09-09T14:53:08;24.90;99.90
52517;DHT22;59374;53.210;5.726;2022-09-09T14:55:35;24.00;99.90
52517;DHT22;59374;53.210;5.726;2022-09-09T14:58:01;23.30;99.90
52517;DHT22;59374;53.210;5.726;2022-09-09T15:00:27;22.40;99.90
52517;DHT22;59374;53.210;5.726;2022-09-09T15:02:53;21.90;99.90
52517;DHT22;59374;53.210;5.726;2022-09-09T15:05:19;22.10;99.90
52517;DHT22;59374;53.210;5.726;2022-09-09T15:07:45;22.40;99.90
52517;DHT22;59374;53.210;5.726;2022-09-09T15:10:10;22.60;99.90
52517;DHT22;59374;53.210;5.726;2022-09-09T15:12:36;22.80;99.90
52517;DHT22;59374;53.210;5.726;2022-09-09T15:15:04;23.30;99.90
52517;DHT22;59374;53.210;5.726;2022-09-09T15:17:30;23.60;99.90
52517;DHT22;59374;53.210;5.726;2022-09-09T15:19:56;23.80;99.90
52517;DHT22;59374;53.210;5.726;2022-09-09T15:22:22;23.80;99.90
52517;DHT22;59374;53.210;5.726;2022-09-09T15:24:49;23.90;99.90
52517;DHT22;59374;53.210;5.726;2022-09-09T15:27:15;23.80;99.90
52517;DHT22;59374;53.210;5.726;2022-09-09T15:29:41;24.00;99.90
52517;DHT22;59374;53.210;5.726;2022-09-09T15:32:07;24.30;99.90
52517;DHT22;59374;53.210;5.726;2022-09-09T15:34:33;24.50;99.90
52517;DHT22;59374;53.210;5.726;2022-09-09T15:36:59;25.20;99.90
52517;DHT22;59374;53.210;5.726;2022-09-09T15:39:27;26.00;99.90
52517;DHT22;59374;53.210;5.726;2022-09-09T15:41:53;26.20;99.90
52517;DHT22;59374;53.210;5.726;2022-09-09T15:44:19;25.70;99.90
52517;DHT22;59374;53.210;5.726;2022-09-09T15:46:48;25.40;99.90
52517;DHT22;59374;53.210;5.726;2022-09-09T15:51:51;24.80;99.90
52517;DHT22;59374;53.210;5.726;2022-09-09T15:54:18;25.20;99.90
52517;DHT22;59374;53.210;5.726;2022-09-09T15:56:46;26.00;99.90
52517;DHT22;59374;53.210;5.726;2022-09-09T15:59:13;26.60;99.90
52517;DHT22;59374;53.210;5.726;2022-09-09T16:01:40;26.50;99.90
52517;DHT22;59374;53.210;5.726;2022-09-09T16:04:07;26.10;99.90
52517;DHT22;59374;53.210;5.726;2022-09-09T16:06:33;25.50;99.90
52517;DHT22;59374;53.210;5.726;2022-09-09T16:08:59;24.90;99.90
52517;DHT22;59374;53.210;5.726;2022-09-09T16:11:33;24.30;99.90
52517;DHT22;59374;53.210;5.726;2022-09-09T16:14:00;23.80;99.90
52517;DHT22;59374;53.210;5.726;2022-09-09T16:16:28;23.40;99.90
52517;DHT22;59374;53.210;5.726;2022-09-09T16:18:56;23.00;99.90
52517;DHT22;59374;53.210;5.726;2022-09-09T16:21:27;22.60;99.90
52517;DHT22;59374;53.210;5.726;2022-09-09T16:23:59;22.30;99.90
52517;DHT22;59374;53.210;5.726;2022-09-09T16:26:25;21.90;99.90
52517;DHT22;59374;53.210;5.726;2022-09-09T16:28:51;21.60;99.90
52517;DHT22;59374;53.210;5.726;2022-09-09T16:31:21;21.30;99.90
52517;DHT22;59374;53.210;5.726;2022-09-09T16:33:47;20.90;99.90
52517;DHT22;59374;53.210;5.726;2022-09-09T16:36:15;20.50;99.90
52517;DHT22;59374;53.210;5.726;2022-09-09T16:38:42;20.20;99.90
52517;DHT22;59374;53.210;5.726;2022-09-09T16:41:09;19.80;99.90
52517;DHT22;59374;53.210;5.726;2022-09-09T16:43:36;19.60;99.90
52517;DHT22;59374;53.210;5.726;2022-09-09T16:46:03;19.40;99.90
52517;DHT22;59374;53.210;5.726;2022-09-09T16:48:33;19.20;99.90
52517;DHT22;59374;53.210;5.726;2022-09-09T16:51:13;19.20;99.90
52517;DHT22;59374;53.210;5.726;2022-09-09T16:53:40;19.20;99.90
52517;DHT22;59374;53.210;5.726;2022-09-09T16:56:09;19.30;99.90
52517;DHT22;59374;53.210;5.726;2022-09-09T16:58:35;19.60;99.90
52517;DHT22;59374;53.210;5.726;2022-09-09T17:01:02;19.90;99.90
52517;DHT22;59374;53.210;5.726;2022-09-09T17:03:29;20.30;99.90
52517;DHT22;59374;53.210;5.726;2022-09-09T17:05:55;20.40;99.90
52517;DHT22;59374;53.210;5.726;2022-09-09T17:08:26;20.80;99.90
52517;DHT22;59374;53.210;5.726;2022-09-09T17:10:51;20.90;99.90
52517;DHT22;59374;53.210;5.726;2022-09-09T17:13:17;20.90;99.90
52517;DHT22;59374;53.210;5.726;2022-09-09T17:15:45;20.80;99.90
52517;DHT22;59374;53.210;5.726;2022-09-09T17:18:12;20.70;99.90
52517;DHT22;59374;53.210;5.726;2022-09-09T17:20:39;20.50;99.90
52517;DHT22;59374;53.210;5.726;2022-09-09T17:23:09;20.40;99.90
52517;DHT22;59374;53.210;5.726;2022-09-09T17:25:35;20.20;99.90
52517;DHT22;59374;53.210;5.726;2022-09-09T17:28:02;20.10;99.90
52517;DHT22;59374;53.210;5.726;2022-09-09T17:30:30;20.00;99.90
52517;DHT22;59374;53.210;5.726;2022-09-09T17:32:59;19.80;99.90
52517;DHT22;59374;53.210;5.726;2022-09-09T17:35:25;19.70;99.90
52517;DHT22;59374;53.210;5.726;2022-09-09T17:37:53;19.50;99.90
52517;DHT22;59374;53.210;5.726;2022-09-09T17:40:20;19.50;99.90
52517;DHT22;59374;53.210;5.726;2022-09-09T17:42:46;19.40;99.90
52517;DHT22;59374;53.210;5.726;2022-09-09T17:45:12;19.30;99.90
52517;DHT22;59374;53.210;5.726;2022-09-09T17:47:38;19.20;99.90
52517;DHT22;59374;53.210;5.726;2022-09-09T17:50:05;19.10;99.90
52517;DHT22;59374;53.210;5.726;2022-09-09T17:52:32;19.00;99.90
52517;DHT22;59374;53.210;5.726;2022-09-09T17:54:57;18.80;99.90
52517;DHT22;59374;53.210;5.726;2022-09-09T17:57:23;18.70;99.90
52517;DHT22;59374;53.210;5.726;2022-09-09T17:59:50;18.60;99.90
52517;DHT22;59374;53.210;5.726;2022-09-09T18:02:15;18.40;99.90
52517;DHT22;59374;53.210;5.726;2022-09-09T18:04:41;18.30;99.90
52517;DHT22;59374;53.210;5.726;2022-09-09T18:07:07;18.20;99.90
52517;DHT22;59374;53.210;5.726;2022-09-09T18:09:33;18.10;99.90